sensor_id;sensor_type;location;lat;lon;timestamp;P1;durP1;ratioP1;P2;durP2;ratioP2
67274;SDS011;55463;52.324;5.122;2023-03-23T00:00:40;12.52;;;4.93;;
67274;SDS011;55463;52.324;5.122;2023-03-23T00:03:05;9.05;;;4.88;;
67274;SDS011;55463;52.324;5.122;2023-03-23T00:05:31;18.48;;;5.25;;
67274;SDS011;55463;52.324;5.122;2023-03-23T00:07:56;9.00;;;4.95;;
67274;SDS011;55463;52.324;5.122;2023-03-23T00:10:22;7.38;;;4.63;;
67274;SDS011;55463;52.324;5.122;2023-03-23T00:12:49;8.00;;;4.68;;
67274;SDS011;55463;52.324;5.122;2023-03-23T00:15:14;10.68;;;4.47;;
67274;SDS011;55463;52.324;5.122;2023-03-23T00:17:41;17.42;;;4.68;;
67274;SDS011;55463;52.324;5.122;2023-03-23T00:20:09;10.38;;;4.50;;
67274;SDS011;55463;52.324;5.122;2023-03-23T00:22:37;8.15;;;4.43;;
67274;SDS011;55463;52.324;5.122;2023-03-23T00:25:06;8.80;;;4.47;;
67274;SDS011;55463;52.324;5.122;2023-03-23T00:27:33;7.67;;;4.20;;
67274;SDS011;55463;52.324;5.122;2023-03-23T00:29:59;10.52;;;4.43;;
67274;SDS011;55463;52.324;5.122;2023-03-23T00:32:25;9.05;;;4.47;;
67274;SDS011;55463;52.324;5.122;2023-03-23T00:34:57;9.63;;;3.97;;
67274;SDS011;55463;52.324;5.122;2023-03-23T00:37:26;10.98;;;4.68;;
67274;SDS011;55463;52.324;5.122;2023-03-23T00:39:51;7.78;;;3.92;;
67274;SDS011;55463;52.324;5.122;2023-03-23T00:42:22;11.65;;;3.78;;
67274;SDS011;55463;52.324;5.122;2023-03-23T00:44:47;7.43;;;3.75;;
67274;SDS011;55463;52.324;5.122;2023-03-23T00:47:13;10.40;;;3.90;;
67274;SDS011;55463;52.324;5.122;2023-03-23T00:49:40;6.47;;;3.72;;
67274;SDS011;55463;52.324;5.122;2023-03-23T00:52:06;9.02;;;4.22;;
67274;SDS011;55463;52.324;5.122;2023-03-23T00:54:32;7.28;;;4.00;;
67274;SDS011;55463;52.324;5.122;2023-03-23T00:56:58;8.40;;;3.95;;
67274;SDS011;55463;52.324;5.122;2023-03-23T00:59:24;9.02;;;3.70;;
67274;SDS011;55463;52.324;5.122;2023-03-23T01:01:50;7.22;;;3.75;;
67274;SDS011;55463;52.324;5.122;2023-03-23T01:04:16;8.80;;;3.70;;
67274;SDS011;55463;52.324;5.122;2023-03-23T01:06:42;9.45;;;4.03;;
67274;SDS011;55463;52.324;5.122;2023-03-23T01:09:10;7.00;;;3.58;;
67274;SDS011;55463;52.324;5.122;2023-03-23T01:11:39;7.07;;;3.78;;
67274;SDS011;55463;52.324;5.122;2023-03-23T01:14:09;9.18;;;3.75;;
67274;SDS011;55463;52.324;5.122;2023-03-23T01:16:35;7.13;;;3.60;;
67274;SDS011;55463;52.324;5.122;2023-03-23T01:19:01;8.93;;;3.70;;
67274;SDS011;55463;52.324;5.122;2023-03-23T01:21:26;4.15;;;3.55;;
67274;SDS011;55463;52.324;5.122;2023-03-23T01:23:52;8.20;;;3.60;;
67274;SDS011;55463;52.324;5.122;2023-03-23T01:26:19;8.15;;;3.25;;
67274;SDS011;55463;52.324;5.122;2023-03-23T01:28:49;9.30;;;3.85;;
67274;SDS011;55463;52.324;5.122;2023-03-23T01:31:22;9.07;;;3.60;;
67274;SDS011;55463;52.324;5.122;2023-03-23T01:33:50;5.85;;;3.05;;
67274;SDS011;55463;52.324;5.122;2023-03-23T01:36:20;6.57;;;3.30;;
67274;SDS011;55463;52.324;5.122;2023-03-23T01:38:48;4.88;;;3.17;;
67274;SDS011;55463;52.324;5.122;2023-03-23T01:41:15;7.55;;;2.83;;
67274;SDS011;55463;52.324;5.122;2023-03-23T01:46:23;5.90;;;3.20;;
67274;SDS011;55463;52.324;5.122;2023-03-23T01:48:50;4.28;;;2.70;;
67274;SDS011;55463;52.324;5.122;2023-03-23T01:51:16;6.60;;;2.45;;
67274;SDS011;55463;52.324;5.122;2023-03-23T01:53:54;7.20;;;2.80;;
67274;SDS011;55463;52.324;5.122;2023-03-23T01:56:23;9.02;;;3.08;;
67274;SDS011;55463;52.324;5.122;2023-03-23T01:58:52;7.40;;;3.30;;
67274;SDS011;55463;52.324;5.122;2023-03-23T02:01:18;6.32;;;3.30;;
67274;SDS011;55463;52.324;5.122;2023-03-23T02:03:46;7.20;;;2.80;;
67274;SDS011;55463;52.324;5.122;2023-03-23T02:06:13;6.88;;;2.60;;
67274;SDS011;55463;52.324;5.122;2023-03-23T02:08:39;6.60;;;2.92;;
67274;SDS011;55463;52.324;5.122;2023-03-23T02:11:16;9.60;;;2.80;;
67274;SDS011;55463;52.324;5.122;2023-03-23T02:13:43;6.40;;;2.65;;
67274;SDS011;55463;52.324;5.122;2023-03-23T02:35:35;9.88;;;2.80;;
67274;SDS011;55463;52.324;5.122;2023-03-23T02:38:14;4.78;;;2.50;;
67274;SDS011;55463;52.324;5.122;2023-03-23T02:40:47;4.43;;;2.25;;
67274;SDS011;55463;52.324;5.122;2023-03-23T02:43:20;2.50;;;2.22;;
67274;SDS011;55463;52.324;5.122;2023-03-23T02:45:47;5.20;;;2.63;;
67274;SDS011;55463;52.324;5.122;2023-03-23T02:48:15;5.55;;;2.78;;
67274;SDS011;55463;52.324;5.122;2023-03-23T02:50:45;2.90;;;2.10;;
67274;SDS011;55463;52.324;5.122;2023-03-23T02:53:13;3.13;;;2.13;;
67274;SDS011;55463;52.324;5.122;2023-03-23T02:55:42;3.25;;;2.50;;
67274;SDS011;55463;52.324;5.122;2023-03-23T02:58:09;4.93;;;2.45;;
67274;SDS011;55463;52.324;5.122;2023-03-23T03:00:35;3.10;;;2.17;;
67274;SDS011;55463;52.324;5.122;2023-03-23T03:03:01;9.15;;;2.63;;
67274;SDS011;55463;52.324;5.122;2023-03-23T03:08:10;7.50;;;2.70;;
67274;SDS011;55463;52.324;5.122;2023-03-23T03:19:02;7.10;;;2.22;;
67274;SDS011;55463;52.324;5.122;2023-03-23T03:21:36;6.88;;;2.80;;
67274;SDS011;55463;52.324;5.122;2023-03-23T03:24:05;10.98;;;2.85;;
67274;SDS011;55463;52.324;5.122;2023-03-23T03:26:36;5.82;;;2.53;;
67274;SDS011;55463;52.324;5.122;2023-03-23T03:29:04;10.32;;;3.00;;
67274;SDS011;55463;52.324;5.122;2023-03-23T03:31:32;6.38;;;2.70;;
67274;SDS011;55463;52.324;5.122;2023-03-23T03:34:00;7.35;;;2.47;;
67274;SDS011;55463;52.324;5.122;2023-03-23T03:36:30;5.57;;;2.75;;
67274;SDS011;55463;52.324;5.122;2023-03-23T03:39:00;7.47;;;2.55;;
67274;SDS011;55463;52.324;5.122;2023-03-23T03:41:30;13.60;;;2.60;;
67274;SDS011;55463;52.324;5.122;2023-03-23T03:43:55;7.20;;;2.50;;
67274;SDS011;55463;52.324;5.122;2023-03-23T03:46:20;7.03;;;3.05;;
67274;SDS011;55463;52.324;5.122;2023-03-23T03:48:46;4.75;;;2.72;;
67274;SDS011;55463;52.324;5.122;2023-03-23T03:51:11;4.60;;;2.28;;
67274;SDS011;55463;52.324;5.122;2023-03-23T03:53:37;10.60;;;2.83;;
67274;SDS011;55463;52.324;5.122;2023-03-23T03:56:03;5.15;;;2.33;;
67274;SDS011;55463;52.324;5.122;2023-03-23T03:58:29;15.02;;;2.67;;
67274;SDS011;55463;52.324;5.122;2023-03-23T04:00:59;8.40;;;2.83;;
67274;SDS011;55463;52.324;5.122;2023-03-23T04:03:25;7.70;;;2.65;;
67274;SDS011;55463;52.324;5.122;2023-03-23T04:05:52;8.73;;;2.60;;
67274;SDS011;55463;52.324;5.122;2023-03-23T04:08:20;7.88;;;3.25;;
67274;SDS011;55463;52.324;5.122;2023-03-23T04:10:47;5.10;;;2.17;;
67274;SDS011;55463;52.324;5.122;2023-03-23T04:13:12;10.15;;;2.40;;
67274;SDS011;55463;52.324;5.122;2023-03-23T04:15:38;6.30;;;2.03;;
67274;SDS011;55463;52.324;5.122;2023-03-23T04:18:04;6.50;;;2.95;;
67274;SDS011;55463;52.324;5.122;2023-03-23T04:20:30;4.03;;;2.10;;
67274;SDS011;55463;52.324;5.122;2023-03-23T04:22:56;6.22;;;2.42;;
67274;SDS011;55463;52.324;5.122;2023-03-23T04:25:21;4.63;;;2.40;;
67274;SDS011;55463;52.324;5.122;2023-03-23T04:27:47;6.60;;;2.50;;
67274;SDS011;55463;52.324;5.122;2023-03-23T04:30:23;8.77;;;2.53;;
67274;SDS011;55463;52.324;5.122;2023-03-23T04:32:51;7.53;;;2.50;;
67274;SDS011;55463;52.324;5.122;2023-03-23T04:35:20;5.38;;;2.42;;
67274;SDS011;55463;52.324;5.122;2023-03-23T04:37:47;10.05;;;3.40;;
67274;SDS011;55463;52.324;5.122;2023-03-23T04:40:14;6.85;;;3.25;;
67274;SDS011;55463;52.324;5.122;2023-03-23T04:42:41;5.18;;;2.58;;
67274;SDS011;55463;52.324;5.122;2023-03-23T04:45:10;9.45;;;3.28;;
67274;SDS011;55463;52.324;5.122;2023-03-23T04:47:39;9.63;;;3.88;;
67274;SDS011;55463;52.324;5.122;2023-03-23T04:50:09;8.77;;;3.25;;
67274;SDS011;55463;52.324;5.122;2023-03-23T04:52:36;10.13;;;2.92;;
67274;SDS011;55463;52.324;5.122;2023-03-23T04:55:04;11.00;;;2.45;;
67274;SDS011;55463;52.324;5.122;2023-03-23T04:57:33;11.07;;;3.20;;
67274;SDS011;55463;52.324;5.122;2023-03-23T05:00:00;11.27;;;2.55;;
67274;SDS011;55463;52.324;5.122;2023-03-23T05:02:28;5.25;;;2.47;;
67274;SDS011;55463;52.324;5.122;2023-03-23T05:04:55;11.20;;;2.95;;
67274;SDS011;55463;52.324;5.122;2023-03-23T05:07:22;7.93;;;2.72;;
67274;SDS011;55463;52.324;5.122;2023-03-23T05:09:48;11.40;;;3.58;;
67274;SDS011;55463;52.324;5.122;2023-03-23T05:12:14;10.27;;;3.45;;
67274;SDS011;55463;52.324;5.122;2023-03-23T05:14:40;10.00;;;3.28;;
67274;SDS011;55463;52.324;5.122;2023-03-23T05:17:06;13.73;;;3.20;;
67274;SDS011;55463;52.324;5.122;2023-03-23T05:19:32;15.65;;;3.20;;
67274;SDS011;55463;52.324;5.122;2023-03-23T05:21:58;17.00;;;3.65;;
67274;SDS011;55463;52.324;5.122;2023-03-23T05:24:28;12.48;;;3.08;;
67274;SDS011;55463;52.324;5.122;2023-03-23T05:26:56;21.05;;;3.60;;
67274;SDS011;55463;52.324;5.122;2023-03-23T05:29:22;11.90;;;3.22;;
67274;SDS011;55463;52.324;5.122;2023-03-23T05:31:48;12.15;;;2.78;;
67274;SDS011;55463;52.324;5.122;2023-03-23T05:34:14;15.93;;;3.33;;
67274;SDS011;55463;52.324;5.122;2023-03-23T05:36:41;14.05;;;3.00;;
67274;SDS011;55463;52.324;5.122;2023-03-23T05:39:08;10.57;;;2.63;;
67274;SDS011;55463;52.324;5.122;2023-03-23T05:41:35;13.38;;;2.80;;
67274;SDS011;55463;52.324;5.122;2023-03-23T05:44:01;13.65;;;3.15;;
67274;SDS011;55463;52.324;5.122;2023-03-23T05:46:27;17.70;;;2.90;;
67274;SDS011;55463;52.324;5.122;2023-03-23T05:48:53;21.30;;;3.30;;
67274;SDS011;55463;52.324;5.122;2023-03-23T05:51:18;15.65;;;3.22;;
67274;SDS011;55463;52.324;5.122;2023-03-23T05:53:44;13.70;;;3.13;;
67274;SDS011;55463;52.324;5.122;2023-03-23T05:56:10;16.65;;;3.10;;
67274;SDS011;55463;52.324;5.122;2023-03-23T05:58:39;14.93;;;3.67;;
67274;SDS011;55463;52.324;5.122;2023-03-23T06:01:07;13.63;;;2.58;;
67274;SDS011;55463;52.324;5.122;2023-03-23T06:03:33;14.43;;;3.28;;
67274;SDS011;55463;52.324;5.122;2023-03-23T06:06:01;14.98;;;3.58;;
67274;SDS011;55463;52.324;5.122;2023-03-23T06:08:27;17.33;;;3.30;;
67274;SDS011;55463;52.324;5.122;2023-03-23T06:10:56;11.77;;;3.05;;
67274;SDS011;55463;52.324;5.122;2023-03-23T06:13:21;13.48;;;3.50;;
67274;SDS011;55463;52.324;5.122;2023-03-23T06:15:49;14.60;;;3.13;;
67274;SDS011;55463;52.324;5.122;2023-03-23T06:18:22;12.50;;;3.20;;
67274;SDS011;55463;52.324;5.122;2023-03-23T06:20:48;19.02;;;3.30;;
67274;SDS011;55463;52.324;5.122;2023-03-23T06:23:14;16.25;;;3.33;;
67274;SDS011;55463;52.324;5.122;2023-03-23T06:25:40;15.02;;;3.30;;
67274;SDS011;55463;52.324;5.122;2023-03-23T06:28:05;29.95;;;3.97;;
67274;SDS011;55463;52.324;5.122;2023-03-23T06:30:31;17.88;;;3.55;;
67274;SDS011;55463;52.324;5.122;2023-03-23T06:32:56;19.08;;;4.00;;
67274;SDS011;55463;52.324;5.122;2023-03-23T06:35:22;21.77;;;4.15;;
67274;SDS011;55463;52.324;5.122;2023-03-23T06:37:48;21.23;;;3.63;;
67274;SDS011;55463;52.324;5.122;2023-03-23T06:40:13;22.25;;;4.63;;
67274;SDS011;55463;52.324;5.122;2023-03-23T06:42:39;25.73;;;4.13;;
67274;SDS011;55463;52.324;5.122;2023-03-23T06:45:05;21.00;;;3.97;;
67274;SDS011;55463;52.324;5.122;2023-03-23T06:47:32;20.25;;;4.55;;
67274;SDS011;55463;52.324;5.122;2023-03-23T06:49:57;18.35;;;4.13;;
67274;SDS011;55463;52.324;5.122;2023-03-23T06:52:23;18.90;;;4.03;;
67274;SDS011;55463;52.324;5.122;2023-03-23T06:54:50;23.33;;;4.47;;
67274;SDS011;55463;52.324;5.122;2023-03-23T06:57:16;26.40;;;4.50;;
67274;SDS011;55463;52.324;5.122;2023-03-23T06:59:42;32.13;;;4.60;;
67274;SDS011;55463;52.324;5.122;2023-03-23T07:02:09;23.52;;;3.97;;
67274;SDS011;55463;52.324;5.122;2023-03-23T07:04:36;20.23;;;4.07;;
67274;SDS011;55463;52.324;5.122;2023-03-23T07:07:03;25.00;;;4.15;;
67274;SDS011;55463;52.324;5.122;2023-03-23T07:09:29;30.17;;;5.10;;
67274;SDS011;55463;52.324;5.122;2023-03-23T07:11:55;21.25;;;4.20;;
67274;SDS011;55463;52.324;5.122;2023-03-23T07:14:20;19.27;;;4.35;;
67274;SDS011;55463;52.324;5.122;2023-03-23T07:16:47;22.13;;;4.15;;
67274;SDS011;55463;52.324;5.122;2023-03-23T07:19:15;20.38;;;3.97;;
67274;SDS011;55463;52.324;5.122;2023-03-23T07:21:41;25.02;;;4.68;;
67274;SDS011;55463;52.324;5.122;2023-03-23T07:24:10;21.20;;;3.67;;
67274;SDS011;55463;52.324;5.122;2023-03-23T07:26:39;26.83;;;4.47;;
67274;SDS011;55463;52.324;5.122;2023-03-23T07:29:08;19.85;;;3.45;;
67274;SDS011;55463;52.324;5.122;2023-03-23T07:31:34;24.30;;;4.57;;
67274;SDS011;55463;52.324;5.122;2023-03-23T07:34:00;26.75;;;4.15;;
67274;SDS011;55463;52.324;5.122;2023-03-23T07:36:26;28.50;;;4.10;;
67274;SDS011;55463;52.324;5.122;2023-03-23T07:38:51;19.38;;;3.72;;
67274;SDS011;55463;52.324;5.122;2023-03-23T07:41:17;17.40;;;3.42;;
67274;SDS011;55463;52.324;5.122;2023-03-23T07:43:43;20.52;;;3.78;;
67274;SDS011;55463;52.324;5.122;2023-03-23T07:46:08;19.00;;;3.60;;
67274;SDS011;55463;52.324;5.122;2023-03-23T07:48:34;20.73;;;3.53;;
67274;SDS011;55463;52.324;5.122;2023-03-23T07:50:59;15.07;;;3.50;;
67274;SDS011;55463;52.324;5.122;2023-03-23T07:53:25;20.88;;;3.90;;
67274;SDS011;55463;52.324;5.122;2023-03-23T07:55:50;16.27;;;3.13;;
67274;SDS011;55463;52.324;5.122;2023-03-23T07:58:16;25.15;;;4.57;;
67274;SDS011;55463;52.324;5.122;2023-03-23T08:00:44;23.40;;;4.78;;
67274;SDS011;55463;52.324;5.122;2023-03-23T08:03:11;16.02;;;3.53;;
67274;SDS011;55463;52.324;5.122;2023-03-23T08:05:37;18.52;;;3.38;;
67274;SDS011;55463;52.324;5.122;2023-03-23T08:08:02;17.00;;;3.78;;
67274;SDS011;55463;52.324;5.122;2023-03-23T08:10:28;17.50;;;4.07;;
67274;SDS011;55463;52.324;5.122;2023-03-23T08:12:55;22.88;;;3.60;;
67274;SDS011;55463;52.324;5.122;2023-03-23T08:15:21;14.88;;;2.95;;
67274;SDS011;55463;52.324;5.122;2023-03-23T08:17:48;14.95;;;3.13;;
67274;SDS011;55463;52.324;5.122;2023-03-23T08:20:15;14.48;;;3.30;;
67274;SDS011;55463;52.324;5.122;2023-03-23T08:22:44;13.65;;;2.95;;
67274;SDS011;55463;52.324;5.122;2023-03-23T08:25:14;20.15;;;3.58;;
67274;SDS011;55463;52.324;5.122;2023-03-23T08:27:39;14.25;;;3.67;;
67274;SDS011;55463;52.324;5.122;2023-03-23T08:30:09;13.95;;;3.28;;
67274;SDS011;55463;52.324;5.122;2023-03-23T08:32:45;15.35;;;3.28;;
67274;SDS011;55463;52.324;5.122;2023-03-23T08:35:12;14.95;;;3.70;;
67274;SDS011;55463;52.324;5.122;2023-03-23T08:37:39;14.23;;;3.15;;
67274;SDS011;55463;52.324;5.122;2023-03-23T08:40:06;14.05;;;3.08;;
67274;SDS011;55463;52.324;5.122;2023-03-23T08:42:34;13.90;;;3.13;;
67274;SDS011;55463;52.324;5.122;2023-03-23T08:45:01;15.50;;;3.10;;
67274;SDS011;55463;52.324;5.122;2023-03-23T08:47:27;14.57;;;2.92;;
67274;SDS011;55463;52.324;5.122;2023-03-23T08:49:53;16.77;;;3.15;;
67274;SDS011;55463;52.324;5.122;2023-03-23T08:52:19;14.15;;;3.30;;
67274;SDS011;55463;52.324;5.122;2023-03-23T08:54:44;13.43;;;3.55;;
67274;SDS011;55463;52.324;5.122;2023-03-23T08:57:12;16.45;;;3.30;;
67274;SDS011;55463;52.324;5.122;2023-03-23T08:59:39;18.23;;;3.30;;
67274;SDS011;55463;52.324;5.122;2023-03-23T09:02:05;12.35;;;3.17;;
67274;SDS011;55463;52.324;5.122;2023-03-23T09:04:31;18.63;;;3.53;;
67274;SDS011;55463;52.324;5.122;2023-03-23T09:06:57;14.35;;;3.28;;
67274;SDS011;55463;52.324;5.122;2023-03-23T09:09:25;12.50;;;3.38;;
67274;SDS011;55463;52.324;5.122;2023-03-23T09:11:52;16.88;;;3.83;;
67274;SDS011;55463;52.324;5.122;2023-03-23T09:14:18;15.48;;;3.33;;
67274;SDS011;55463;52.324;5.122;2023-03-23T09:16:44;16.75;;;4.50;;
67274;SDS011;55463;52.324;5.122;2023-03-23T09:19:10;12.18;;;3.63;;
67274;SDS011;55463;52.324;5.122;2023-03-23T09:21:37;16.02;;;3.17;;
67274;SDS011;55463;52.324;5.122;2023-03-23T09:24:03;15.50;;;3.45;;
67274;SDS011;55463;52.324;5.122;2023-03-23T09:26:29;13.73;;;3.60;;
67274;SDS011;55463;52.324;5.122;2023-03-23T09:28:55;13.32;;;3.15;;
67274;SDS011;55463;52.324;5.122;2023-03-23T09:31:21;14.13;;;3.78;;
67274;SDS011;55463;52.324;5.122;2023-03-23T09:33:47;16.27;;;3.50;;
67274;SDS011;55463;52.324;5.122;2023-03-23T09:36:17;15.52;;;3.90;;
67274;SDS011;55463;52.324;5.122;2023-03-23T09:38:43;10.98;;;3.90;;
67274;SDS011;55463;52.324;5.122;2023-03-23T09:54:21;16.38;;;3.50;;
67274;SDS011;55463;52.324;5.122;2023-03-23T09:56:51;17.98;;;3.85;;
67274;SDS011;55463;52.324;5.122;2023-03-23T09:59:19;15.95;;;3.75;;
67274;SDS011;55463;52.324;5.122;2023-03-23T10:02:19;16.17;;;3.38;;
67274;SDS011;55463;52.324;5.122;2023-03-23T10:04:51;19.10;;;3.95;;
67274;SDS011;55463;52.324;5.122;2023-03-23T10:07:21;16.20;;;3.63;;
67274;SDS011;55463;52.324;5.122;2023-03-23T10:09:57;14.73;;;3.65;;
67274;SDS011;55463;52.324;5.122;2023-03-23T10:12:46;23.52;;;4.25;;
67274;SDS011;55463;52.324;5.122;2023-03-23T10:15:24;16.77;;;3.33;;
67274;SDS011;55463;52.324;5.122;2023-03-23T10:18:10;15.75;;;3.75;;
67274;SDS011;55463;52.324;5.122;2023-03-23T10:20:50;15.13;;;3.50;;
67274;SDS011;55463;52.324;5.122;2023-03-23T10:25:47;16.73;;;3.35;;
67274;SDS011;55463;52.324;5.122;2023-03-23T10:28:18;16.48;;;4.03;;
67274;SDS011;55463;52.324;5.122;2023-03-23T10:30:53;12.73;;;3.38;;
67274;SDS011;55463;52.324;5.122;2023-03-23T10:35:57;13.93;;;3.70;;
67274;SDS011;55463;52.324;5.122;2023-03-23T10:38:32;15.50;;;3.22;;
67274;SDS011;55463;52.324;5.122;2023-03-23T10:41:03;13.57;;;3.75;;
67274;SDS011;55463;52.324;5.122;2023-03-23T10:43:36;16.85;;;3.55;;
67274;SDS011;55463;52.324;5.122;2023-03-23T10:46:12;11.48;;;3.10;;
67274;SDS011;55463;52.324;5.122;2023-03-23T10:48:47;16.88;;;3.70;;
67274;SDS011;55463;52.324;5.122;2023-03-23T10:51:20;18.30;;;3.38;;
67274;SDS011;55463;52.324;5.122;2023-03-23T10:53:55;17.17;;;3.50;;
67274;SDS011;55463;52.324;5.122;2023-03-23T10:56:40;13.25;;;3.55;;
67274;SDS011;55463;52.324;5.122;2023-03-23T11:01:37;17.73;;;3.67;;
67274;SDS011;55463;52.324;5.122;2023-03-23T11:04:13;19.77;;;3.60;;
67274;SDS011;55463;52.324;5.122;2023-03-23T11:07:18;17.48;;;3.80;;
67274;SDS011;55463;52.324;5.122;2023-03-23T11:09:51;16.40;;;3.63;;
67274;SDS011;55463;52.324;5.122;2023-03-23T11:12:19;18.83;;;3.95;;
67274;SDS011;55463;52.324;5.122;2023-03-23T11:14:45;16.10;;;3.63;;
67274;SDS011;55463;52.324;5.122;2023-03-23T11:17:23;17.00;;;4.38;;
67274;SDS011;55463;52.324;5.122;2023-03-23T11:19:51;20.90;;;4.03;;
67274;SDS011;55463;52.324;5.122;2023-03-23T11:24:59;17.90;;;4.00;;
67274;SDS011;55463;52.324;5.122;2023-03-23T11:27:26;21.35;;;4.07;;
67274;SDS011;55463;52.324;5.122;2023-03-23T11:29:54;18.55;;;4.15;;
67274;SDS011;55463;52.324;5.122;2023-03-23T11:32:26;13.20;;;3.00;;
67274;SDS011;55463;52.324;5.122;2023-03-23T11:34:59;16.25;;;3.90;;
67274;SDS011;55463;52.324;5.122;2023-03-23T11:37:32;18.40;;;3.58;;
67274;SDS011;55463;52.324;5.122;2023-03-23T11:45:22;23.75;;;4.22;;
67274;SDS011;55463;52.324;5.122;2023-03-23T11:48:13;21.42;;;4.32;;
67274;SDS011;55463;52.324;5.122;2023-03-23T11:51:00;18.85;;;3.95;;
67274;SDS011;55463;52.324;5.122;2023-03-23T11:58:55;17.23;;;3.78;;
67274;SDS011;55463;52.324;5.122;2023-03-23T12:04:37;20.45;;;4.40;;
67274;SDS011;55463;52.324;5.122;2023-03-23T12:07:25;16.92;;;4.38;;
67274;SDS011;55463;52.324;5.122;2023-03-23T12:10:27;12.80;;;3.42;;
67274;SDS011;55463;52.324;5.122;2023-03-23T12:13:28;16.50;;;3.65;;
67274;SDS011;55463;52.324;5.122;2023-03-23T12:18:55;17.10;;;3.55;;
67274;SDS011;55463;52.324;5.122;2023-03-23T12:21:34;15.95;;;3.38;;
67274;SDS011;55463;52.324;5.122;2023-03-23T12:36:03;18.20;;;3.53;;
67274;SDS011;55463;52.324;5.122;2023-03-23T12:46:09;15.85;;;3.10;;
67274;SDS011;55463;52.324;5.122;2023-03-23T12:48:42;12.27;;;3.20;;
67274;SDS011;55463;52.324;5.122;2023-03-23T12:56:37;14.32;;;3.58;;
67274;SDS011;55463;52.324;5.122;2023-03-23T12:59:26;13.48;;;3.35;;
67274;SDS011;55463;52.324;5.122;2023-03-23T13:02:49;14.75;;;3.58;;
67274;SDS011;55463;52.324;5.122;2023-03-23T13:05:08;15.15;;;3.35;;
67274;SDS011;55463;52.324;5.122;2023-03-23T13:07:43;14.07;;;3.28;;
67274;SDS011;55463;52.324;5.122;2023-03-23T13:10:22;15.15;;;3.92;;
67274;SDS011;55463;52.324;5.122;2023-03-23T13:12:52;12.82;;;3.30;;
67274;SDS011;55463;52.324;5.122;2023-03-23T13:17:55;15.20;;;2.95;;
67274;SDS011;55463;52.324;5.122;2023-03-23T13:23:29;16.60;;;4.00;;
67274;SDS011;55463;52.324;5.122;2023-03-23T13:26:00;12.10;;;2.90;;
67274;SDS011;55463;52.324;5.122;2023-03-23T13:28:32;11.15;;;3.05;;
67274;SDS011;55463;52.324;5.122;2023-03-23T13:31:23;12.80;;;3.08;;
67274;SDS011;55463;52.324;5.122;2023-03-23T13:33:59;20.33;;;3.85;;
67274;SDS011;55463;52.324;5.122;2023-03-23T13:39:05;14.90;;;3.05;;
67274;SDS011;55463;52.324;5.122;2023-03-23T13:41:48;12.73;;;3.33;;
67274;SDS011;55463;52.324;5.122;2023-03-23T13:44:55;17.90;;;3.42;;
67274;SDS011;55463;52.324;5.122;2023-03-23T13:47:38;16.98;;;3.47;;
67274;SDS011;55463;52.324;5.122;2023-03-23T14:05:43;17.98;;;4.05;;
67274;SDS011;55463;52.324;5.122;2023-03-23T14:10:42;17.38;;;3.55;;
67274;SDS011;55463;52.324;5.122;2023-03-23T14:13:18;16.98;;;3.20;;
67274;SDS011;55463;52.324;5.122;2023-03-23T14:16:12;12.73;;;3.45;;
67274;SDS011;55463;52.324;5.122;2023-03-23T14:18:41;14.88;;;4.07;;
67274;SDS011;55463;52.324;5.122;2023-03-23T14:21:16;13.38;;;3.17;;
67274;SDS011;55463;52.324;5.122;2023-03-23T14:23:49;14.77;;;4.10;;
67274;SDS011;55463;52.324;5.122;2023-03-23T14:26:17;16.48;;;3.50;;
67274;SDS011;55463;52.324;5.122;2023-03-23T14:28:49;16.63;;;3.35;;
67274;SDS011;55463;52.324;5.122;2023-03-23T14:31:22;21.20;;;4.63;;
67274;SDS011;55463;52.324;5.122;2023-03-23T14:33:49;15.00;;;3.45;;
67274;SDS011;55463;52.324;5.122;2023-03-23T14:36:20;17.13;;;3.88;;
67274;SDS011;55463;52.324;5.122;2023-03-23T14:38:48;19.77;;;3.85;;
67274;SDS011;55463;52.324;5.122;2023-03-23T14:41:20;13.00;;;3.40;;
67274;SDS011;55463;52.324;5.122;2023-03-23T14:43:46;15.88;;;3.72;;
67274;SDS011;55463;52.324;5.122;2023-03-23T14:46:13;13.82;;;2.88;;
67274;SDS011;55463;52.324;5.122;2023-03-23T14:48:39;15.07;;;3.40;;
67274;SDS011;55463;52.324;5.122;2023-03-23T14:51:05;16.92;;;3.58;;
67274;SDS011;55463;52.324;5.122;2023-03-23T14:53:36;14.15;;;2.83;;
67274;SDS011;55463;52.324;5.122;2023-03-23T14:56:06;11.80;;;2.70;;
67274;SDS011;55463;52.324;5.122;2023-03-23T14:58:36;16.88;;;3.75;;
67274;SDS011;55463;52.324;5.122;2023-03-23T15:01:04;15.45;;;3.03;;
67274;SDS011;55463;52.324;5.122;2023-03-23T15:03:34;15.93;;;3.28;;
67274;SDS011;55463;52.324;5.122;2023-03-23T15:06:04;17.42;;;3.60;;
67274;SDS011;55463;52.324;5.122;2023-03-23T15:08:35;14.45;;;3.83;;
67274;SDS011;55463;52.324;5.122;2023-03-23T15:13:29;16.48;;;3.20;;
67274;SDS011;55463;52.324;5.122;2023-03-23T15:16:18;18.50;;;3.72;;
67274;SDS011;55463;52.324;5.122;2023-03-23T15:18:50;13.48;;;3.78;;
67274;SDS011;55463;52.324;5.122;2023-03-23T15:24:32;18.50;;;3.35;;
67274;SDS011;55463;52.324;5.122;2023-03-23T15:27:11;16.02;;;3.88;;
67274;SDS011;55463;52.324;5.122;2023-03-23T15:29:55;16.02;;;3.53;;
67274;SDS011;55463;52.324;5.122;2023-03-23T15:34:55;13.93;;;3.72;;
67274;SDS011;55463;52.324;5.122;2023-03-23T15:37:32;12.77;;;3.60;;
67274;SDS011;55463;52.324;5.122;2023-03-23T15:39:59;14.73;;;3.25;;
67274;SDS011;55463;52.324;5.122;2023-03-23T15:42:26;19.45;;;4.22;;
67274;SDS011;55463;52.324;5.122;2023-03-23T15:45:16;14.05;;;3.60;;
67274;SDS011;55463;52.324;5.122;2023-03-23T15:47:48;21.27;;;3.65;;
67274;SDS011;55463;52.324;5.122;2023-03-23T15:52:52;14.25;;;3.60;;
67274;SDS011;55463;52.324;5.122;2023-03-23T15:55:23;15.05;;;3.47;;
67274;SDS011;55463;52.324;5.122;2023-03-23T15:57:51;21.38;;;4.57;;
67274;SDS011;55463;52.324;5.122;2023-03-23T16:00:18;17.20;;;3.60;;
67274;SDS011;55463;52.324;5.122;2023-03-23T16:02:48;15.52;;;3.97;;
67274;SDS011;55463;52.324;5.122;2023-03-23T16:05:17;17.98;;;4.15;;
67274;SDS011;55463;52.324;5.122;2023-03-23T16:07:43;19.67;;;3.85;;
67274;SDS011;55463;52.324;5.122;2023-03-23T16:10:15;14.82;;;4.18;;
67274;SDS011;55463;52.324;5.122;2023-03-23T16:12:42;17.83;;;3.88;;
67274;SDS011;55463;52.324;5.122;2023-03-23T16:15:08;14.63;;;4.47;;
67274;SDS011;55463;52.324;5.122;2023-03-23T16:17:34;19.15;;;4.10;;
67274;SDS011;55463;52.324;5.122;2023-03-23T16:20:00;24.05;;;4.97;;
67274;SDS011;55463;52.324;5.122;2023-03-23T16:22:27;17.90;;;4.30;;
67274;SDS011;55463;52.324;5.122;2023-03-23T16:24:52;16.30;;;3.90;;
67274;SDS011;55463;52.324;5.122;2023-03-23T16:27:18;19.90;;;3.40;;
67274;SDS011;55463;52.324;5.122;2023-03-23T16:29:45;18.55;;;3.85;;
67274;SDS011;55463;52.324;5.122;2023-03-23T16:32:11;14.43;;;3.53;;
67274;SDS011;55463;52.324;5.122;2023-03-23T16:34:36;18.55;;;4.22;;
67274;SDS011;55463;52.324;5.122;2023-03-23T16:37:02;13.80;;;4.68;;
67274;SDS011;55463;52.324;5.122;2023-03-23T16:39:28;14.82;;;3.67;;
67274;SDS011;55463;52.324;5.122;2023-03-23T16:41:53;16.58;;;3.47;;
67274;SDS011;55463;52.324;5.122;2023-03-23T16:44:19;15.77;;;3.25;;
67274;SDS011;55463;52.324;5.122;2023-03-23T16:46:44;14.60;;;3.10;;
67274;SDS011;55463;52.324;5.122;2023-03-23T16:49:10;15.07;;;3.30;;
67274;SDS011;55463;52.324;5.122;2023-03-23T16:51:36;17.63;;;3.78;;
67274;SDS011;55463;52.324;5.122;2023-03-23T16:54:01;17.25;;;3.60;;
67274;SDS011;55463;52.324;5.122;2023-03-23T16:56:29;15.73;;;3.70;;
67274;SDS011;55463;52.324;5.122;2023-03-23T16:58:54;13.10;;;3.42;;
67274;SDS011;55463;52.324;5.122;2023-03-23T17:01:20;17.35;;;3.30;;
67274;SDS011;55463;52.324;5.122;2023-03-23T17:03:45;13.43;;;3.10;;
67274;SDS011;55463;52.324;5.122;2023-03-23T17:06:10;14.30;;;3.15;;